createdAt,value
2023-09-14T00:03:14.716Z,24.03
2023-09-14T00:08:18.054Z,24.16
2023-09-14T00:13:20.195Z,24.31
2023-09-14T00:18:22.866Z,24.41
2023-09-14T00:23:25.097Z,24.48
2023-09-14T00:28:27.280Z,24.39
2023-09-14T00:33:29.462Z,24.29
2023-09-14T00:38:31.595Z,24.20
2023-09-14T00:43:35.609Z,24.22
2023-09-14T00:48:38.942Z,24.23
2023-09-14T00:53:41.516Z,24.22
2023-09-14T00:58:44.042Z,24.31
2023-09-14T01:03:47.089Z,24.15
2023-09-14T01:08:50.589Z,24.08
2023-09-14T01:14:48.793Z,24.06
2023-09-14T01:20:17.716Z,24.08
2023-09-14T01:25:46.908Z,24.12
2023-09-14T01:30:49.964Z,23.99
2023-09-14T01:35:57.981Z,23.91
2023-09-14T01:41:02.508Z,23.76
2023-09-14T01:46:05.800Z,23.89
2023-09-14T01:51:08.115Z,23.93
2023-09-14T01:56:10.361Z,23.86
2023-09-14T02:01:14.360Z,23.96
2023-09-14T02:06:16.644Z,23.87
2023-09-14T02:11:18.830Z,23.87
2023-09-14T02:16:21.047Z,23.93
2023-09-14T02:21:23.249Z,23.95
2023-09-14T02:26:25.431Z,23.77
2023-09-14T02:31:27.856Z,23.61
2023-09-14T02:36:30.117Z,23.60
2023-09-14T02:41:33.741Z,23.41
2023-09-14T02:46:35.969Z,23.01
2023-09-14T02:51:38.154Z,23.59
2023-09-14T02:56:41.689Z,23.88
2023-09-14T03:01:50.979Z,24.00
2023-09-14T03:06:55.868Z,23.95
2023-09-14T03:11:58.421Z,23.90
2023-09-14T03:17:00.767Z,23.49
2023-09-14T03:22:04.048Z,22.77
2023-09-14T03:27:06.636Z,22.84
2023-09-14T03:32:09.501Z,22.11
2023-09-14T03:37:12.120Z,21.70
2023-09-14T03:42:14.420Z,20.66
2023-09-14T03:47:17.364Z,20.36
2023-09-14T03:52:19.526Z,19.07
2023-09-14T03:57:22.375Z,18.94
2023-09-14T04:02:25.606Z,19.26
2023-09-14T04:07:27.799Z,20.07
2023-09-14T04:12:29.946Z,21.16
2023-09-14T04:17:32.216Z,20.92
2023-09-14T04:22:35.589Z,20.97
2023-09-14T04:27:37.874Z,20.16
2023-09-14T04:32:40.359Z,20.08
2023-09-14T04:37:42.707Z,19.03
2023-09-14T04:42:45.008Z,18.63
2023-09-14T04:47:47.671Z,18.82
2023-09-14T04:52:50.578Z,20.90
2023-09-14T04:57:53.450Z,22.12
2023-09-14T05:02:56.610Z,22.36
2023-09-14T05:08:00.047Z,20.16
2023-09-14T05:13:03.969Z,19.19
2023-09-14T05:18:07.992Z,20.37
2023-09-14T05:23:10.557Z,21.87
2023-09-14T05:28:13.964Z,20.25
2023-09-14T05:33:16.570Z,19.64
2023-09-14T05:38:18.889Z,19.44
2023-09-14T05:43:21.234Z,20.66
2023-09-14T05:48:24.880Z,21.66
2023-09-14T05:53:27.039Z,21.98
2023-09-14T05:58:29.292Z,21.05
2023-09-14T06:03:31.771Z,22.04
2023-09-14T06:08:34.909Z,22.30
2023-09-14T06:13:37.174Z,22.64
2023-09-14T06:18:39.315Z,22.66
2023-09-14T06:23:41.765Z,22.89
2023-09-14T06:28:44.475Z,23.39
2023-09-14T06:33:47.048Z,23.68
2023-09-14T06:38:49.961Z,23.83
2023-09-14T06:43:52.162Z,23.88
2023-09-14T06:48:54.328Z,23.92
2023-09-14T06:53:56.544Z,23.93
2023-09-14T06:58:58.843Z,23.84
2023-09-14T07:04:01.779Z,23.60
2023-09-14T07:09:05.825Z,23.55
2023-09-14T07:14:08.102Z,23.39
2023-09-14T07:19:10.544Z,23.09
2023-09-14T07:24:13.297Z,23.58
2023-09-14T07:29:15.472Z,23.84
2023-09-14T07:34:18.071Z,23.99
2023-09-14T07:39:21.933Z,24.02
2023-09-14T07:44:24.813Z,24.11
2023-09-14T07:49:27.052Z,24.11
2023-09-14T07:54:29.325Z,23.72
2023-09-14T07:59:31.525Z,23.48
2023-09-14T08:04:33.996Z,23.08
2023-09-14T08:09:36.200Z,23.77
2023-09-14T08:14:38.738Z,23.45
2023-09-14T08:19:41.077Z,21.56
2023-09-14T08:24:43.281Z,19.90
2023-09-14T08:29:46.633Z,19.21
2023-09-14T08:34:48.933Z,19.91
2023-09-14T08:39:53.057Z,19.27
2023-09-14T08:44:56.549Z,19.17
2023-09-14T08:50:01.693Z,19.25
2023-09-14T08:55:04.895Z,19.14
2023-09-14T09:00:16.539Z,19.49
2023-09-14T09:05:20.841Z,19.86
2023-09-14T09:10:29.957Z,20.22
2023-09-14T09:15:36.368Z,20.49
2023-09-14T09:20:47.380Z,19.88
2023-09-14T09:25:54.472Z,20.81
2023-09-14T09:30:56.800Z,21.56
2023-09-14T09:36:01.933Z,22.82
2023-09-14T09:41:12.950Z,20.42
2023-09-14T09:46:18.749Z,21.38
2023-09-14T09:51:25.924Z,20.42
2023-09-14T09:56:28.255Z,22.66
2023-09-14T10:01:31.720Z,24.02
2023-09-14T10:06:34.483Z,24.47
2023-09-14T10:11:38.193Z,24.76
2023-09-14T10:16:45.821Z,24.99
2023-09-14T10:21:53.875Z,25.21
2023-09-14T10:26:57.654Z,25.36
2023-09-14T10:32:02.253Z,25.79
2023-09-14T10:37:05.968Z,25.91
2023-09-14T10:42:08.170Z,25.82
2023-09-14T10:47:14.763Z,25.57
2023-09-14T10:52:26.291Z,25.47
2023-09-14T10:57:30.953Z,25.67
2023-09-14T11:02:49.641Z,28.78
2023-09-14T11:08:02.769Z,31.86
2023-09-14T11:13:20.917Z,32.85
2023-09-14T11:18:59.364Z,32.65
2023-09-14T11:24:09.180Z,34.14
2023-09-14T11:29:13.546Z,33.03
2023-09-14T11:34:19.578Z,33.75
2023-09-14T11:39:25.572Z,30.63
2023-09-14T11:44:45.039Z,31.09
2023-09-14T11:49:51.373Z,28.15
2023-09-14T11:54:54.342Z,27.69
2023-09-14T11:59:56.928Z,28.53
2023-09-14T12:04:59.628Z,28.45
2023-09-14T12:10:03.286Z,27.32
2023-09-14T12:15:06.340Z,26.56
2023-09-14T12:20:12.944Z,26.42
2023-09-14T12:25:18.238Z,27.06
2023-09-14T12:30:21.139Z,26.31
2023-09-14T12:35:25.852Z,26.31
2023-09-14T12:40:28.850Z,26.01
2023-09-14T12:45:36.612Z,25.69
2023-09-14T12:50:39.589Z,26.08
2023-09-14T12:55:46.144Z,26.40
2023-09-14T13:00:50.639Z,26.00
2023-09-14T13:05:59.631Z,26.26
2023-09-14T13:11:06.567Z,26.04
2023-09-14T13:16:09.157Z,26.16
2023-09-14T13:21:11.869Z,26.11
2023-09-14T13:26:14.479Z,27.94
2023-09-14T13:31:17.264Z,32.08
2023-09-14T13:36:20.060Z,32.50
2023-09-14T13:41:22.617Z,33.65
2023-09-14T13:46:25.199Z,34.28
2023-09-14T13:51:27.811Z,34.22
2023-09-14T13:56:30.355Z,34.15
2023-09-14T14:01:33.665Z,34.12
2023-09-14T14:06:36.600Z,33.83
2023-09-14T14:11:39.277Z,34.20
2023-09-14T14:16:44.035Z,34.23
2023-09-14T14:21:46.874Z,33.98
2023-09-14T14:26:52.726Z,33.46
2023-09-14T14:31:55.324Z,33.27
2023-09-14T14:36:58.566Z,32.25
2023-09-14T14:42:01.221Z,30.69
2023-09-14T14:47:03.902Z,28.61
2023-09-14T14:52:06.697Z,27.79
2023-09-14T14:57:09.401Z,27.22
2023-09-14T15:02:12.016Z,26.82
2023-09-14T15:07:15.304Z,26.63
2023-09-14T15:12:17.913Z,26.58
2023-09-14T15:17:20.599Z,26.52
2023-09-14T15:22:23.172Z,26.46
2023-09-14T15:27:25.834Z,26.38
2023-09-14T15:32:28.580Z,26.41
2023-09-14T15:37:31.064Z,26.41
2023-09-14T15:42:34.281Z,26.40
2023-09-14T15:47:36.951Z,26.85
2023-09-14T15:52:42.302Z,26.91
2023-09-14T15:57:45.892Z,27.29
2023-09-14T16:02:48.595Z,27.33
2023-09-14T16:08:05.587Z,26.89
2023-09-14T16:13:10.949Z,26.70
2023-09-14T16:18:14.025Z,26.34
2023-09-14T16:23:16.929Z,26.32
2023-09-14T16:28:19.479Z,26.39
2023-09-14T16:33:22.082Z,26.21
2023-09-14T16:38:25.073Z,26.02
2023-09-14T16:43:28.193Z,25.77
2023-09-14T16:48:37.372Z,25.66
2023-09-14T16:53:40.007Z,25.51
2023-09-14T16:58:42.607Z,25.26
2023-09-14T17:03:45.143Z,25.37
2023-09-14T17:08:48.399Z,25.40
2023-09-14T17:13:51.167Z,25.38
2023-09-14T17:18:54.036Z,25.39
2023-09-14T17:24:46.036Z,25.26
2023-09-14T17:29:48.636Z,25.26
2023-09-14T17:34:51.315Z,25.18
2023-09-14T17:39:54.193Z,25.07
2023-09-14T17:44:56.872Z,24.79
2023-09-14T17:49:59.955Z,25.02
2023-09-14T17:55:02.512Z,25.04
2023-09-14T18:00:14.370Z,25.07
2023-09-14T18:05:17.256Z,24.83
2023-09-14T18:10:20.305Z,24.88
2023-09-14T18:15:22.863Z,24.98
2023-09-14T18:20:25.513Z,24.73
2023-09-14T18:25:28.254Z,24.38
2023-09-14T18:30:30.936Z,24.19
2023-09-14T18:35:33.626Z,24.26
2023-09-14T18:40:36.198Z,24.42
2023-09-14T18:45:38.797Z,24.38
2023-09-14T18:50:41.357Z,24.17
2023-09-14T18:55:49.289Z,24.25
2023-09-14T19:00:52.370Z,24.46
2023-09-14T19:05:56.676Z,23.98
2023-09-14T19:10:59.239Z,24.15
2023-09-14T19:16:01.986Z,24.14
2023-09-14T19:21:04.637Z,24.27
2023-09-14T19:26:07.323Z,24.20
2023-09-14T19:31:16.412Z,23.98
2023-09-14T19:36:21.288Z,23.68
2023-09-14T19:41:23.893Z,23.76
2023-09-14T19:46:26.757Z,23.88
2023-09-14T19:51:29.455Z,23.92
2023-09-14T19:56:32.118Z,23.71
2023-09-14T20:01:34.850Z,23.16
2023-09-14T20:06:37.594Z,22.73
2023-09-14T20:11:41.054Z,22.16
2023-09-14T20:16:45.037Z,22.57
2023-09-14T20:21:47.768Z,23.12
2023-09-14T20:26:50.444Z,23.16
2023-09-14T20:31:53.032Z,23.50
2023-09-14T20:36:55.846Z,23.61
2023-09-14T20:41:58.522Z,23.47
2023-09-14T20:47:01.220Z,23.69
2023-09-14T20:52:04.345Z,22.70
2023-09-14T20:57:07.980Z,22.47
2023-09-14T21:02:10.624Z,23.02
2023-09-14T21:07:13.352Z,22.58
2023-09-14T21:12:15.909Z,21.02
2023-09-14T21:17:18.142Z,19.72
2023-09-14T21:22:20.302Z,20.22
2023-09-14T21:27:22.559Z,21.37
2023-09-14T21:32:24.770Z,21.95
2023-09-14T21:37:27.045Z,22.19
2023-09-14T21:42:29.457Z,22.59
2023-09-14T21:47:31.939Z,22.49
2023-09-14T21:52:34.506Z,22.75
2023-09-14T21:57:36.870Z,22.69
2023-09-14T22:02:39.193Z,23.01
2023-09-14T22:07:41.550Z,22.91
2023-09-14T22:12:43.698Z,22.76
2023-09-14T22:17:45.984Z,22.79
2023-09-14T22:22:51.180Z,23.08
2023-09-14T22:27:53.542Z,22.76
2023-09-14T22:32:55.728Z,22.61
2023-09-14T22:37:58.035Z,22.51
2023-09-14T22:43:00.306Z,21.56
2023-09-14T22:48:02.599Z,21.78
2023-09-14T22:53:04.989Z,21.52
2023-09-14T22:58:07.321Z,20.66
2023-09-14T23:03:09.656Z,20.90
2023-09-14T23:08:11.932Z,21.16
2023-09-14T23:13:14.145Z,19.57
2023-09-14T23:18:16.705Z,20.26
2023-09-14T23:23:22.042Z,21.52
2023-09-14T23:28:24.285Z,21.98
2023-09-14T23:33:30.865Z,21.80
2023-09-14T23:38:33.274Z,21.56
2023-09-14T23:43:35.910Z,21.76
2023-09-14T23:48:38.281Z,21.76
2023-09-14T23:53:40.443Z,21.80
2023-09-14T23:58:43.916Z,21.94
